sensor_id;sensor_type;location;lat;lon;timestamp;temperature;humidity
32522;DHT22;18963;51.504;5.316;2023-04-06T00:00:36;0.60;99.90
32522;DHT22;18963;51.504;5.316;2023-04-06T00:03:01;0.60;99.90
32522;DHT22;18963;51.504;5.316;2023-04-06T00:05:27;0.60;99.90
32522;DHT22;18963;51.504;5.316;2023-04-06T00:07:55;0.60;99.90
32522;DHT22;18963;51.504;5.316;2023-04-06T00:10:21;0.60;99.90
32522;DHT22;18963;51.504;5.316;2023-04-06T00:12:46;0.60;99.90
32522;DHT22;18963;51.504;5.316;2023-04-06T00:15:12;0.60;99.90
32522;DHT22;18963;51.504;5.316;2023-04-06T00:17:37;0.70;99.90
32522;DHT22;18963;51.504;5.316;2023-04-06T00:20:03;0.70;99.90
32522;DHT22;18963;51.504;5.316;2023-04-06T00:22:29;0.70;99.90
32522;DHT22;18963;51.504;5.316;2023-04-06T00:24:54;0.80;99.90
32522;DHT22;18963;51.504;5.316;2023-04-06T00:27:20;0.90;99.90
32522;DHT22;18963;51.504;5.316;2023-04-06T00:29:45;1.00;99.90
32522;DHT22;18963;51.504;5.316;2023-04-06T00:32:11;1.10;99.90
32522;DHT22;18963;51.504;5.316;2023-04-06T00:34:36;1.10;99.90
32522;DHT22;18963;51.504;5.316;2023-04-06T00:37:02;1.10;99.90
32522;DHT22;18963;51.504;5.316;2023-04-06T00:39:27;1.20;99.90
32522;DHT22;18963;51.504;5.316;2023-04-06T00:41:53;1.30;99.90
32522;DHT22;18963;51.504;5.316;2023-04-06T00:44:19;1.30;99.90
32522;DHT22;18963;51.504;5.316;2023-04-06T00:46:45;1.40;99.90
32522;DHT22;18963;51.504;5.316;2023-04-06T00:49:10;1.50;99.90
32522;DHT22;18963;51.504;5.316;2023-04-06T00:51:36;1.50;99.90
32522;DHT22;18963;51.504;5.316;2023-04-06T00:54:02;1.50;99.90
32522;DHT22;18963;51.504;5.316;2023-04-06T00:56:27;1.60;99.90
32522;DHT22;18963;51.504;5.316;2023-04-06T00:58:53;1.60;99.90
32522;DHT22;18963;51.504;5.316;2023-04-06T01:01:18;1.60;99.90
32522;DHT22;18963;51.504;5.316;2023-04-06T01:03:44;1.60;99.90
32522;DHT22;18963;51.504;5.316;2023-04-06T01:06:12;1.70;99.90
32522;DHT22;18963;51.504;5.316;2023-04-06T01:08:38;1.70;99.90
32522;DHT22;18963;51.504;5.316;2023-04-06T01:11:03;1.80;99.90
32522;DHT22;18963;51.504;5.316;2023-04-06T01:13:29;1.90;99.90
32522;DHT22;18963;51.504;5.316;2023-04-06T01:15:54;2.00;99.90
32522;DHT22;18963;51.504;5.316;2023-04-06T01:18:25;2.00;99.90
32522;DHT22;18963;51.504;5.316;2023-04-06T01:20:50;2.00;99.90
32522;DHT22;18963;51.504;5.316;2023-04-06T01:23:16;2.00;99.90
32522;DHT22;18963;51.504;5.316;2023-04-06T01:25:41;2.10;99.90
32522;DHT22;18963;51.504;5.316;2023-04-06T01:28:07;2.10;99.90
32522;DHT22;18963;51.504;5.316;2023-04-06T01:30:32;2.10;99.90
32522;DHT22;18963;51.504;5.316;2023-04-06T01:33:00;2.00;99.90
32522;DHT22;18963;51.504;5.316;2023-04-06T01:35:26;2.00;99.90
32522;DHT22;18963;51.504;5.316;2023-04-06T01:37:52;2.00;99.90
32522;DHT22;18963;51.504;5.316;2023-04-06T01:40:17;2.00;99.90
32522;DHT22;18963;51.504;5.316;2023-04-06T01:42:43;2.00;99.90
32522;DHT22;18963;51.504;5.316;2023-04-06T01:45:08;2.00;99.90
32522;DHT22;18963;51.504;5.316;2023-04-06T01:47:34;2.00;99.90
32522;DHT22;18963;51.504;5.316;2023-04-06T01:50:03;2.00;99.90
32522;DHT22;18963;51.504;5.316;2023-04-06T01:52:31;2.10;99.90
32522;DHT22;18963;51.504;5.316;2023-04-06T01:54:57;2.10;99.90
32522;DHT22;18963;51.504;5.316;2023-04-06T01:57:22;2.20;99.90
32522;DHT22;18963;51.504;5.316;2023-04-06T01:59:48;2.20;99.90
32522;DHT22;18963;51.504;5.316;2023-04-06T02:02:13;2.20;99.90
32522;DHT22;18963;51.504;5.316;2023-04-06T02:04:39;2.30;99.90
32522;DHT22;18963;51.504;5.316;2023-04-06T02:07:07;2.40;99.90
32522;DHT22;18963;51.504;5.316;2023-04-06T02:09:33;2.40;99.90
32522;DHT22;18963;51.504;5.316;2023-04-06T02:11:58;2.40;99.90
32522;DHT22;18963;51.504;5.316;2023-04-06T02:14:24;2.40;99.90
32522;DHT22;18963;51.504;5.316;2023-04-06T02:16:50;2.50;99.90
32522;DHT22;18963;51.504;5.316;2023-04-06T02:19:16;2.50;99.90
32522;DHT22;18963;51.504;5.316;2023-04-06T02:21:42;2.50;99.90
32522;DHT22;18963;51.504;5.316;2023-04-06T02:24:07;2.50;99.90
32522;DHT22;18963;51.504;5.316;2023-04-06T02:26:33;2.50;99.90
32522;DHT22;18963;51.504;5.316;2023-04-06T02:28:58;2.50;99.90
32522;DHT22;18963;51.504;5.316;2023-04-06T02:31:23;2.60;99.90
32522;DHT22;18963;51.504;5.316;2023-04-06T02:33:49;2.60;99.90
32522;DHT22;18963;51.504;5.316;2023-04-06T02:36:15;2.60;99.90
32522;DHT22;18963;51.504;5.316;2023-04-06T02:38:40;2.60;99.90
32522;DHT22;18963;51.504;5.316;2023-04-06T02:41:06;2.70;99.90
32522;DHT22;18963;51.504;5.316;2023-04-06T02:43:32;2.70;99.90
32522;DHT22;18963;51.504;5.316;2023-04-06T02:45:57;2.80;99.90
32522;DHT22;18963;51.504;5.316;2023-04-06T02:48:23;2.80;99.90
32522;DHT22;18963;51.504;5.316;2023-04-06T02:50:48;2.80;99.90
32522;DHT22;18963;51.504;5.316;2023-04-06T02:53:14;2.80;99.90
32522;DHT22;18963;51.504;5.316;2023-04-06T02:55:40;2.90;99.90
32522;DHT22;18963;51.504;5.316;2023-04-06T02:58:05;2.90;99.90
32522;DHT22;18963;51.504;5.316;2023-04-06T03:00:31;2.90;99.90
32522;DHT22;18963;51.504;5.316;2023-04-06T03:02:56;2.80;99.90
32522;DHT22;18963;51.504;5.316;2023-04-06T03:05:22;2.80;99.90
32522;DHT22;18963;51.504;5.316;2023-04-06T03:07:47;2.80;99.90
32522;DHT22;18963;51.504;5.316;2023-04-06T03:10:13;2.70;99.90
32522;DHT22;18963;51.504;5.316;2023-04-06T03:12:38;2.70;99.90
32522;DHT22;18963;51.504;5.316;2023-04-06T03:15:04;2.80;99.90
32522;DHT22;18963;51.504;5.316;2023-04-06T03:17:30;2.80;99.90
32522;DHT22;18963;51.504;5.316;2023-04-06T03:19:55;2.80;99.90
32522;DHT22;18963;51.504;5.316;2023-04-06T03:22:21;2.80;99.90
32522;DHT22;18963;51.504;5.316;2023-04-06T03:24:46;2.80;99.90
32522;DHT22;18963;51.504;5.316;2023-04-06T03:27:12;2.80;99.90
32522;DHT22;18963;51.504;5.316;2023-04-06T03:29:37;2.80;99.90
32522;DHT22;18963;51.504;5.316;2023-04-06T03:32:03;2.80;99.90
32522;DHT22;18963;51.504;5.316;2023-04-06T03:34:28;2.70;99.90
32522;DHT22;18963;51.504;5.316;2023-04-06T03:36:54;2.70;99.90
32522;DHT22;18963;51.504;5.316;2023-04-06T03:39:19;2.70;99.90
32522;DHT22;18963;51.504;5.316;2023-04-06T03:41:45;2.60;99.90
32522;DHT22;18963;51.504;5.316;2023-04-06T03:44:10;2.60;99.90
32522;DHT22;18963;51.504;5.316;2023-04-06T03:46:36;2.60;99.90
32522;DHT22;18963;51.504;5.316;2023-04-06T03:49:01;2.60;99.90
32522;DHT22;18963;51.504;5.316;2023-04-06T03:51:27;2.60;99.90
32522;DHT22;18963;51.504;5.316;2023-04-06T03:53:53;2.50;99.90
32522;DHT22;18963;51.504;5.316;2023-04-06T03:56:18;2.50;99.90
32522;DHT22;18963;51.504;5.316;2023-04-06T03:58:43;2.50;99.90
32522;DHT22;18963;51.504;5.316;2023-04-06T04:01:10;2.50;99.90
32522;DHT22;18963;51.504;5.316;2023-04-06T04:03:36;2.40;99.90
32522;DHT22;18963;51.504;5.316;2023-04-06T04:06:01;2.40;99.90
32522;DHT22;18963;51.504;5.316;2023-04-06T04:08:27;2.40;99.90
32522;DHT22;18963;51.504;5.316;2023-04-06T04:10:52;2.40;99.90
32522;DHT22;18963;51.504;5.316;2023-04-06T04:13:18;2.40;99.90
32522;DHT22;18963;51.504;5.316;2023-04-06T04:15:43;2.40;99.90
32522;DHT22;18963;51.504;5.316;2023-04-06T04:18:09;2.40;99.90
32522;DHT22;18963;51.504;5.316;2023-04-06T04:20:37;2.40;99.90
32522;DHT22;18963;51.504;5.316;2023-04-06T04:23:02;2.40;99.90
32522;DHT22;18963;51.504;5.316;2023-04-06T04:25:28;2.30;99.90
32522;DHT22;18963;51.504;5.316;2023-04-06T04:27:53;2.40;99.90
32522;DHT22;18963;51.504;5.316;2023-04-06T04:30:19;2.40;99.90
32522;DHT22;18963;51.504;5.316;2023-04-06T04:32:44;2.40;99.90
32522;DHT22;18963;51.504;5.316;2023-04-06T04:35:10;2.40;99.90
32522;DHT22;18963;51.504;5.316;2023-04-06T04:37:36;2.40;99.90
32522;DHT22;18963;51.504;5.316;2023-04-06T04:40:02;2.40;99.90
32522;DHT22;18963;51.504;5.316;2023-04-06T04:42:27;2.50;99.90
32522;DHT22;18963;51.504;5.316;2023-04-06T04:44:53;2.50;99.90
32522;DHT22;18963;51.504;5.316;2023-04-06T04:47:18;2.50;99.90
32522;DHT22;18963;51.504;5.316;2023-04-06T04:49:44;2.50;99.90
32522;DHT22;18963;51.504;5.316;2023-04-06T04:52:10;2.60;99.90
32522;DHT22;18963;51.504;5.316;2023-04-06T04:54:35;2.70;99.90
32522;DHT22;18963;51.504;5.316;2023-04-06T04:57:01;2.70;99.90
32522;DHT22;18963;51.504;5.316;2023-04-06T04:59:26;2.70;99.90
32522;DHT22;18963;51.504;5.316;2023-04-06T05:01:52;2.80;99.90
32522;DHT22;18963;51.504;5.316;2023-04-06T05:04:17;2.80;99.90
32522;DHT22;18963;51.504;5.316;2023-04-06T05:06:43;2.90;99.90
32522;DHT22;18963;51.504;5.316;2023-04-06T05:09:08;3.00;99.90
32522;DHT22;18963;51.504;5.316;2023-04-06T05:11:34;3.00;99.90
32522;DHT22;18963;51.504;5.316;2023-04-06T05:13:59;3.10;99.90
32522;DHT22;18963;51.504;5.316;2023-04-06T05:16:25;3.10;99.90
32522;DHT22;18963;51.504;5.316;2023-04-06T05:18:50;3.20;99.90
32522;DHT22;18963;51.504;5.316;2023-04-06T05:21:16;3.20;99.90
32522;DHT22;18963;51.504;5.316;2023-04-06T05:23:41;3.20;99.90
32522;DHT22;18963;51.504;5.316;2023-04-06T05:26:07;3.30;99.90
32522;DHT22;18963;51.504;5.316;2023-04-06T05:28:32;3.30;99.90
32522;DHT22;18963;51.504;5.316;2023-04-06T05:30:58;3.30;99.90
32522;DHT22;18963;51.504;5.316;2023-04-06T05:33:24;3.30;99.90
32522;DHT22;18963;51.504;5.316;2023-04-06T05:35:50;3.40;99.90
32522;DHT22;18963;51.504;5.316;2023-04-06T05:38:15;3.40;99.90
32522;DHT22;18963;51.504;5.316;2023-04-06T05:40:41;3.50;99.90
32522;DHT22;18963;51.504;5.316;2023-04-06T05:43:07;3.50;99.90
32522;DHT22;18963;51.504;5.316;2023-04-06T05:45:33;3.60;99.90
32522;DHT22;18963;51.504;5.316;2023-04-06T05:47:58;3.70;99.90
32522;DHT22;18963;51.504;5.316;2023-04-06T05:50:24;3.70;99.90
32522;DHT22;18963;51.504;5.316;2023-04-06T05:52:49;3.80;99.90
32522;DHT22;18963;51.504;5.316;2023-04-06T05:55:15;3.80;99.90
32522;DHT22;18963;51.504;5.316;2023-04-06T05:57:40;3.90;99.90
32522;DHT22;18963;51.504;5.316;2023-04-06T06:00:06;4.00;99.90
32522;DHT22;18963;51.504;5.316;2023-04-06T06:02:34;4.00;99.90
32522;DHT22;18963;51.504;5.316;2023-04-06T06:04:59;4.00;99.90
32522;DHT22;18963;51.504;5.316;2023-04-06T06:07:25;4.10;99.90
32522;DHT22;18963;51.504;5.316;2023-04-06T06:09:50;4.20;99.90
32522;DHT22;18963;51.504;5.316;2023-04-06T06:12:16;4.20;99.90
32522;DHT22;18963;51.504;5.316;2023-04-06T06:14:41;4.30;99.90
32522;DHT22;18963;51.504;5.316;2023-04-06T06:17:07;4.30;99.90
32522;DHT22;18963;51.504;5.316;2023-04-06T06:19:33;4.40;99.90
32522;DHT22;18963;51.504;5.316;2023-04-06T06:21:58;4.50;99.90
32522;DHT22;18963;51.504;5.316;2023-04-06T06:24:26;4.60;99.90
32522;DHT22;18963;51.504;5.316;2023-04-06T06:26:52;4.60;99.90
32522;DHT22;18963;51.504;5.316;2023-04-06T06:29:18;4.70;99.90
32522;DHT22;18963;51.504;5.316;2023-04-06T06:31:43;4.80;99.90
32522;DHT22;18963;51.504;5.316;2023-04-06T06:34:09;4.80;99.90
32522;DHT22;18963;51.504;5.316;2023-04-06T06:36:35;4.90;99.90
32522;DHT22;18963;51.504;5.316;2023-04-06T06:39:01;5.00;99.90
32522;DHT22;18963;51.504;5.316;2023-04-06T06:41:28;5.00;99.90
32522;DHT22;18963;51.504;5.316;2023-04-06T06:43:54;5.00;99.90
32522;DHT22;18963;51.504;5.316;2023-04-06T06:46:20;5.10;99.90
32522;DHT22;18963;51.504;5.316;2023-04-06T06:48:45;5.10;99.90
32522;DHT22;18963;51.504;5.316;2023-04-06T06:51:11;5.20;99.90
32522;DHT22;18963;51.504;5.316;2023-04-06T06:53:37;5.20;99.90
32522;DHT22;18963;51.504;5.316;2023-04-06T06:56:02;5.30;99.90
32522;DHT22;18963;51.504;5.316;2023-04-06T06:58:28;5.40;99.90
32522;DHT22;18963;51.504;5.316;2023-04-06T07:00:57;5.40;99.90
32522;DHT22;18963;51.504;5.316;2023-04-06T07:03:22;5.40;99.90
32522;DHT22;18963;51.504;5.316;2023-04-06T07:05:49;5.50;99.90
32522;DHT22;18963;51.504;5.316;2023-04-06T07:08:21;5.60;99.90
32522;DHT22;18963;51.504;5.316;2023-04-06T07:10:47;5.70;99.90
32522;DHT22;18963;51.504;5.316;2023-04-06T07:13:13;5.70;99.90
32522;DHT22;18963;51.504;5.316;2023-04-06T07:15:43;5.90;99.90
32522;DHT22;18963;51.504;5.316;2023-04-06T07:18:08;5.90;99.90
32522;DHT22;18963;51.504;5.316;2023-04-06T07:20:34;6.00;99.90
32522;DHT22;18963;51.504;5.316;2023-04-06T07:23:00;6.10;99.90
32522;DHT22;18963;51.504;5.316;2023-04-06T07:25:25;6.30;99.90
32522;DHT22;18963;51.504;5.316;2023-04-06T07:27:51;6.30;99.90
32522;DHT22;18963;51.504;5.316;2023-04-06T07:30:16;6.40;99.90
32522;DHT22;18963;51.504;5.316;2023-04-06T07:32:43;6.50;99.90
32522;DHT22;18963;51.504;5.316;2023-04-06T07:35:08;6.60;99.90
32522;DHT22;18963;51.504;5.316;2023-04-06T07:37:34;6.70;99.90
32522;DHT22;18963;51.504;5.316;2023-04-06T07:40:02;6.80;99.90
32522;DHT22;18963;51.504;5.316;2023-04-06T07:42:28;6.90;99.90
32522;DHT22;18963;51.504;5.316;2023-04-06T07:44:53;7.00;99.90
32522;DHT22;18963;51.504;5.316;2023-04-06T07:47:19;7.10;99.90
32522;DHT22;18963;51.504;5.316;2023-04-06T07:49:44;7.10;99.90
32522;DHT22;18963;51.504;5.316;2023-04-06T07:52:10;7.20;99.90
32522;DHT22;18963;51.504;5.316;2023-04-06T07:54:36;7.20;99.90
32522;DHT22;18963;51.504;5.316;2023-04-06T07:57:01;7.30;99.90
32522;DHT22;18963;51.504;5.316;2023-04-06T07:59:27;7.40;99.90
32522;DHT22;18963;51.504;5.316;2023-04-06T08:01:52;7.50;99.90
32522;DHT22;18963;51.504;5.316;2023-04-06T08:04:17;7.60;99.90
32522;DHT22;18963;51.504;5.316;2023-04-06T08:06:43;7.70;99.90
32522;DHT22;18963;51.504;5.316;2023-04-06T08:09:08;7.80;99.90
32522;DHT22;18963;51.504;5.316;2023-04-06T08:11:34;7.90;99.90
32522;DHT22;18963;51.504;5.316;2023-04-06T08:14:02;8.00;99.90
32522;DHT22;18963;51.504;5.316;2023-04-06T08:16:28;8.20;99.90
32522;DHT22;18963;51.504;5.316;2023-04-06T08:18:53;8.20;99.90
32522;DHT22;18963;51.504;5.316;2023-04-06T08:21:19;8.30;99.90
32522;DHT22;18963;51.504;5.316;2023-04-06T08:23:44;8.40;99.90
32522;DHT22;18963;51.504;5.316;2023-04-06T08:26:11;8.50;99.90
32522;DHT22;18963;51.504;5.316;2023-04-06T08:28:37;8.60;99.90
32522;DHT22;18963;51.504;5.316;2023-04-06T08:31:05;8.70;99.90
32522;DHT22;18963;51.504;5.316;2023-04-06T08:33:31;8.70;99.90
32522;DHT22;18963;51.504;5.316;2023-04-06T08:35:57;8.80;99.90
32522;DHT22;18963;51.504;5.316;2023-04-06T08:38:22;8.80;99.90
32522;DHT22;18963;51.504;5.316;2023-04-06T08:40:48;8.80;99.90
32522;DHT22;18963;51.504;5.316;2023-04-06T08:43:15;8.80;99.90
32522;DHT22;18963;51.504;5.316;2023-04-06T08:45:42;8.90;99.90
32522;DHT22;18963;51.504;5.316;2023-04-06T08:48:08;8.90;99.90
32522;DHT22;18963;51.504;5.316;2023-04-06T08:50:34;8.90;99.90
32522;DHT22;18963;51.504;5.316;2023-04-06T08:53:00;9.00;99.90
32522;DHT22;18963;51.504;5.316;2023-04-06T08:55:26;9.00;99.90
32522;DHT22;18963;51.504;5.316;2023-04-06T08:57:52;9.10;99.90
32522;DHT22;18963;51.504;5.316;2023-04-06T09:00:20;9.30;99.90
32522;DHT22;18963;51.504;5.316;2023-04-06T09:02:46;9.30;99.90
32522;DHT22;18963;51.504;5.316;2023-04-06T09:05:12;9.30;99.90
32522;DHT22;18963;51.504;5.316;2023-04-06T09:07:38;9.40;99.90
32522;DHT22;18963;51.504;5.316;2023-04-06T09:10:07;9.50;99.90
32522;DHT22;18963;51.504;5.316;2023-04-06T09:12:32;9.50;99.90
32522;DHT22;18963;51.504;5.316;2023-04-06T09:14:59;9.60;99.90
32522;DHT22;18963;51.504;5.316;2023-04-06T09:17:26;9.60;99.90
32522;DHT22;18963;51.504;5.316;2023-04-06T09:19:51;9.70;99.90
32522;DHT22;18963;51.504;5.316;2023-04-06T09:22:17;9.70;99.90
32522;DHT22;18963;51.504;5.316;2023-04-06T09:24:44;9.70;99.90
32522;DHT22;18963;51.504;5.316;2023-04-06T09:27:10;9.80;99.90
32522;DHT22;18963;51.504;5.316;2023-04-06T09:29:35;9.80;99.90
32522;DHT22;18963;51.504;5.316;2023-04-06T09:32:02;9.70;99.90
32522;DHT22;18963;51.504;5.316;2023-04-06T09:34:28;9.70;99.90
32522;DHT22;18963;51.504;5.316;2023-04-06T09:36:54;9.70;99.90
32522;DHT22;18963;51.504;5.316;2023-04-06T09:39:22;9.70;99.90
32522;DHT22;18963;51.504;5.316;2023-04-06T09:41:51;9.80;99.90
32522;DHT22;18963;51.504;5.316;2023-04-06T09:44:17;9.80;99.90
32522;DHT22;18963;51.504;5.316;2023-04-06T09:46:43;9.80;99.90
32522;DHT22;18963;51.504;5.316;2023-04-06T09:49:09;9.70;99.90
32522;DHT22;18963;51.504;5.316;2023-04-06T09:54:01;9.60;99.90
32522;DHT22;18963;51.504;5.316;2023-04-06T09:56:28;9.50;99.90
32522;DHT22;18963;51.504;5.316;2023-04-06T09:58:56;9.50;99.90
32522;DHT22;18963;51.504;5.316;2023-04-06T10:01:22;9.40;99.90
32522;DHT22;18963;51.504;5.316;2023-04-06T10:06:18;9.40;99.90
32522;DHT22;18963;51.504;5.316;2023-04-06T10:08:47;9.40;99.90
32522;DHT22;18963;51.504;5.316;2023-04-06T10:11:14;9.50;99.90
32522;DHT22;18963;51.504;5.316;2023-04-06T10:13:40;9.50;99.90
32522;DHT22;18963;51.504;5.316;2023-04-06T10:16:07;9.50;99.90
32522;DHT22;18963;51.504;5.316;2023-04-06T10:18:33;9.50;99.90
32522;DHT22;18963;51.504;5.316;2023-04-06T10:23:59;9.50;99.90
32522;DHT22;18963;51.504;5.316;2023-04-06T10:26:25;9.50;99.90
32522;DHT22;18963;51.504;5.316;2023-04-06T10:28:51;9.50;99.90
32522;DHT22;18963;51.504;5.316;2023-04-06T10:31:27;9.50;99.90
32522;DHT22;18963;51.504;5.316;2023-04-06T10:33:56;9.40;99.90
32522;DHT22;18963;51.504;5.316;2023-04-06T10:36:23;9.40;99.90
32522;DHT22;18963;51.504;5.316;2023-04-06T10:38:53;9.30;99.90
32522;DHT22;18963;51.504;5.316;2023-04-06T10:41:19;9.30;99.90
32522;DHT22;18963;51.504;5.316;2023-04-06T10:43:45;9.20;99.90
32522;DHT22;18963;51.504;5.316;2023-04-06T10:46:24;9.20;99.90
32522;DHT22;18963;51.504;5.316;2023-04-06T10:48:49;9.20;99.90
32522;DHT22;18963;51.504;5.316;2023-04-06T10:51:16;9.20;99.90
32522;DHT22;18963;51.504;5.316;2023-04-06T10:53:43;9.20;99.90
32522;DHT22;18963;51.504;5.316;2023-04-06T10:56:15;9.20;99.90
32522;DHT22;18963;51.504;5.316;2023-04-06T10:58:47;9.30;99.90
32522;DHT22;18963;51.504;5.316;2023-04-06T11:01:20;9.30;99.90
32522;DHT22;18963;51.504;5.316;2023-04-06T11:03:46;9.30;99.90
32522;DHT22;18963;51.504;5.316;2023-04-06T11:06:22;9.30;99.90
32522;DHT22;18963;51.504;5.316;2023-04-06T11:08:48;9.40;99.90
32522;DHT22;18963;51.504;5.316;2023-04-06T11:11:15;9.40;99.90
32522;DHT22;18963;51.504;5.316;2023-04-06T11:13:45;9.40;99.90
32522;DHT22;18963;51.504;5.316;2023-04-06T11:16:21;9.40;99.90
32522;DHT22;18963;51.504;5.316;2023-04-06T11:18:54;9.40;99.90
32522;DHT22;18963;51.504;5.316;2023-04-06T11:21:31;9.50;99.90
32522;DHT22;18963;51.504;5.316;2023-04-06T11:24:14;9.40;99.90
32522;DHT22;18963;51.504;5.316;2023-04-06T11:26:41;9.50;99.90
32522;DHT22;18963;51.504;5.316;2023-04-06T11:29:07;9.50;99.90
32522;DHT22;18963;51.504;5.316;2023-04-06T11:31:44;9.60;99.90
32522;DHT22;18963;51.504;5.316;2023-04-06T11:34:13;9.70;99.90
32522;DHT22;18963;51.504;5.316;2023-04-06T11:36:41;9.70;99.90
32522;DHT22;18963;51.504;5.316;2023-04-06T11:39:07;9.70;99.90
32522;DHT22;18963;51.504;5.316;2023-04-06T11:41:32;9.80;99.90
32522;DHT22;18963;51.504;5.316;2023-04-06T11:44:00;9.90;99.90
32522;DHT22;18963;51.504;5.316;2023-04-06T11:46:26;9.90;99.90
32522;DHT22;18963;51.504;5.316;2023-04-06T11:48:51;9.90;99.90
32522;DHT22;18963;51.504;5.316;2023-04-06T11:51:23;9.90;99.90
32522;DHT22;18963;51.504;5.316;2023-04-06T11:53:52;9.90;99.90
32522;DHT22;18963;51.504;5.316;2023-04-06T11:56:27;9.90;99.90
32522;DHT22;18963;51.504;5.316;2023-04-06T11:58:56;9.90;99.90
32522;DHT22;18963;51.504;5.316;2023-04-06T12:01:22;9.80;99.90
32522;DHT22;18963;51.504;5.316;2023-04-06T12:03:48;9.80;99.90
32522;DHT22;18963;51.504;5.316;2023-04-06T12:06:14;9.70;99.90
32522;DHT22;18963;51.504;5.316;2023-04-06T12:08:43;9.70;99.90
32522;DHT22;18963;51.504;5.316;2023-04-06T12:11:08;9.60;99.90
32522;DHT22;18963;51.504;5.316;2023-04-06T12:13:34;9.60;99.90
32522;DHT22;18963;51.504;5.316;2023-04-06T12:15:59;9.50;99.90
32522;DHT22;18963;51.504;5.316;2023-04-06T12:18:25;9.50;99.90
32522;DHT22;18963;51.504;5.316;2023-04-06T12:20:51;9.40;99.90
32522;DHT22;18963;51.504;5.316;2023-04-06T12:23:16;9.30;99.90
32522;DHT22;18963;51.504;5.316;2023-04-06T12:25:42;9.30;99.90
32522;DHT22;18963;51.504;5.316;2023-04-06T12:28:08;9.40;99.90
32522;DHT22;18963;51.504;5.316;2023-04-06T12:30:36;9.30;99.90
32522;DHT22;18963;51.504;5.316;2023-04-06T12:33:02;9.30;99.90
32522;DHT22;18963;51.504;5.316;2023-04-06T12:38:44;9.20;99.90
32522;DHT22;18963;51.504;5.316;2023-04-06T12:41:11;9.20;99.90
32522;DHT22;18963;51.504;5.316;2023-04-06T12:43:39;9.20;99.90
32522;DHT22;18963;51.504;5.316;2023-04-06T12:46:10;9.10;99.90
32522;DHT22;18963;51.504;5.316;2023-04-06T12:48:38;9.10;99.90
32522;DHT22;18963;51.504;5.316;2023-04-06T12:51:04;9.00;99.90
32522;DHT22;18963;51.504;5.316;2023-04-06T12:53:30;9.00;99.90
32522;DHT22;18963;51.504;5.316;2023-04-06T12:55:56;9.00;99.90
32522;DHT22;18963;51.504;5.316;2023-04-06T12:58:22;9.00;99.90
32522;DHT22;18963;51.504;5.316;2023-04-06T13:00:51;8.90;99.90
32522;DHT22;18963;51.504;5.316;2023-04-06T13:03:19;8.90;99.90
32522;DHT22;18963;51.504;5.316;2023-04-06T13:05:46;8.90;99.90
32522;DHT22;18963;51.504;5.316;2023-04-06T13:08:11;8.80;99.90
32522;DHT22;18963;51.504;5.316;2023-04-06T13:10:37;8.80;99.90
32522;DHT22;18963;51.504;5.316;2023-04-06T13:13:03;8.80;99.90
32522;DHT22;18963;51.504;5.316;2023-04-06T13:15:28;8.70;99.90
32522;DHT22;18963;51.504;5.316;2023-04-06T13:17:54;8.70;99.90
32522;DHT22;18963;51.504;5.316;2023-04-06T13:20:19;8.70;99.90
32522;DHT22;18963;51.504;5.316;2023-04-06T13:22:45;8.60;99.90
32522;DHT22;18963;51.504;5.316;2023-04-06T13:25:10;8.60;99.90
32522;DHT22;18963;51.504;5.316;2023-04-06T13:27:38;8.60;99.90
32522;DHT22;18963;51.504;5.316;2023-04-06T13:30:07;8.60;99.90
32522;DHT22;18963;51.504;5.316;2023-04-06T13:32:33;8.60;99.90
32522;DHT22;18963;51.504;5.316;2023-04-06T13:34:58;8.60;99.90
32522;DHT22;18963;51.504;5.316;2023-04-06T13:37:25;8.60;99.90
32522;DHT22;18963;51.504;5.316;2023-04-06T13:39:51;8.60;99.90
32522;DHT22;18963;51.504;5.316;2023-04-06T13:42:16;8.60;99.90
32522;DHT22;18963;51.504;5.316;2023-04-06T13:44:42;8.50;99.90
32522;DHT22;18963;51.504;5.316;2023-04-06T13:47:07;8.40;99.90
32522;DHT22;18963;51.504;5.316;2023-04-06T13:49:33;8.50;99.90
32522;DHT22;18963;51.504;5.316;2023-04-06T13:51:58;8.50;99.90
32522;DHT22;18963;51.504;5.316;2023-04-06T13:54:26;8.40;99.90
32522;DHT22;18963;51.504;5.316;2023-04-06T13:56:51;8.50;99.90
32522;DHT22;18963;51.504;5.316;2023-04-06T13:59:17;8.50;99.90
32522;DHT22;18963;51.504;5.316;2023-04-06T14:01:42;8.40;99.90
32522;DHT22;18963;51.504;5.316;2023-04-06T14:04:10;8.40;99.90
32522;DHT22;18963;51.504;5.316;2023-04-06T14:06:36;8.40;99.90
32522;DHT22;18963;51.504;5.316;2023-04-06T14:09:02;8.40;99.90
32522;DHT22;18963;51.504;5.316;2023-04-06T14:11:27;8.40;99.90
32522;DHT22;18963;51.504;5.316;2023-04-06T14:13:53;8.40;99.90
32522;DHT22;18963;51.504;5.316;2023-04-06T14:16:19;8.40;99.90
32522;DHT22;18963;51.504;5.316;2023-04-06T14:18:44;8.40;99.90
32522;DHT22;18963;51.504;5.316;2023-04-06T14:21:10;8.30;99.90
32522;DHT22;18963;51.504;5.316;2023-04-06T14:23:36;8.30;99.90
32522;DHT22;18963;51.504;5.316;2023-04-06T14:26:02;8.30;99.90
32522;DHT22;18963;51.504;5.316;2023-04-06T14:28:29;8.30;99.90
32522;DHT22;18963;51.504;5.316;2023-04-06T14:30:54;8.30;99.90
32522;DHT22;18963;51.504;5.316;2023-04-06T14:33:20;8.20;99.90
32522;DHT22;18963;51.504;5.316;2023-04-06T14:35:45;8.20;99.90
32522;DHT22;18963;51.504;5.316;2023-04-06T14:38:11;8.20;99.90
32522;DHT22;18963;51.504;5.316;2023-04-06T14:40:37;8.20;99.90
32522;DHT22;18963;51.504;5.316;2023-04-06T14:43:03;8.20;99.90
32522;DHT22;18963;51.504;5.316;2023-04-06T14:45:29;8.20;99.90
32522;DHT22;18963;51.504;5.316;2023-04-06T14:47:54;8.10;99.90
32522;DHT22;18963;51.504;5.316;2023-04-06T14:50:20;8.10;99.90
32522;DHT22;18963;51.504;5.316;2023-04-06T14:52:45;8.10;99.90
32522;DHT22;18963;51.504;5.316;2023-04-06T14:55:12;8.00;99.90
32522;DHT22;18963;51.504;5.316;2023-04-06T14:57:37;8.00;99.90
32522;DHT22;18963;51.504;5.316;2023-04-06T15:00:03;8.00;99.90
32522;DHT22;18963;51.504;5.316;2023-04-06T15:02:29;8.00;99.90
32522;DHT22;18963;51.504;5.316;2023-04-06T15:04:56;8.00;99.90
32522;DHT22;18963;51.504;5.316;2023-04-06T15:07:22;8.00;99.90
32522;DHT22;18963;51.504;5.316;2023-04-06T15:09:47;8.00;99.90
32522;DHT22;18963;51.504;5.316;2023-04-06T15:12:13;8.00;99.90
32522;DHT22;18963;51.504;5.316;2023-04-06T15:14:38;8.00;99.90
32522;DHT22;18963;51.504;5.316;2023-04-06T15:17:04;8.00;99.90
32522;DHT22;18963;51.504;5.316;2023-04-06T15:19:29;8.00;99.90
32522;DHT22;18963;51.504;5.316;2023-04-06T15:21:55;7.90;99.90
32522;DHT22;18963;51.504;5.316;2023-04-06T15:24:20;8.00;99.90
32522;DHT22;18963;51.504;5.316;2023-04-06T15:26:46;8.00;99.90
32522;DHT22;18963;51.504;5.316;2023-04-06T15:29:12;8.00;99.90
32522;DHT22;18963;51.504;5.316;2023-04-06T15:31:37;8.00;99.90
32522;DHT22;18963;51.504;5.316;2023-04-06T15:34:04;8.00;99.90
32522;DHT22;18963;51.504;5.316;2023-04-06T15:36:33;8.00;99.90
32522;DHT22;18963;51.504;5.316;2023-04-06T15:38:59;8.00;99.90
32522;DHT22;18963;51.504;5.316;2023-04-06T15:41:26;8.00;99.90
32522;DHT22;18963;51.504;5.316;2023-04-06T15:43:51;8.00;99.90
32522;DHT22;18963;51.504;5.316;2023-04-06T15:46:17;8.00;99.90
32522;DHT22;18963;51.504;5.316;2023-04-06T15:48:43;8.10;99.90